Time;durP1;ratioP1;P1;durP2;ratioP2;P2;SDS_P1;SDS_P2;PMS_P1;PMS_P2;Temp;Humidity;BMP_temperature;BMP_pressure;BME280_temperature;BME280_humidity;BME280_pressure;Samples;Min_cycle;Max_cycle;Signal;HPM_P1;HPM_P2
2022/02/26 00:02:18;;;;;;;19.88;5.55;;;;;;;3.53;78.27;99994.31;5049481;28;20447;-73
2022/02/26 00:04:44;;;;;;;20.13;5.53;;;;;;;3.53;78.29;99991.69;5048519;28;20123;-72
2022/02/26 00:07:09;;;;;;;19.63;6.88;;;;;;;3.46;78.09;99996.00;5052288;28;20569;-73
2022/02/26 00:09:35;;;;;;;16.63;5.30;;;;;;;3.46;78.42;100007.38;5046744;28;20097;-73
2022/02/26 00:12:00;;;;;;;20.58;5.75;;;;;;;3.48;78.29;100009.84;5049209;28;20021;-73
2022/02/26 00:14:26;;;;;;;20.15;5.30;;;;;;;3.47;78.50;100008.22;5048707;28;20032;-73
2022/02/26 00:16:52;;;;;;;13.55;6.10;;;;;;;3.49;77.98;100017.59;5049281;28;20075;-73
2022/02/26 00:19:17;;;;;;;17.65;6.38;;;;;;;3.47;78.45;100019.56;5049228;28;20036;-73
2022/02/26 00:21:42;;;;;;;21.00;5.25;;;;;;;3.48;77.91;100012.47;5050490;28;20029;-72
2022/02/26 00:24:08;;;;;;;29.58;7.78;;;;;;;3.44;78.23;100005.91;5045981;28;20414;-72
2022/02/26 00:26:33;;;;;;;20.80;6.15;;;;;;;3.47;78.11;100026.69;5052838;28;20043;-72
2022/02/26 00:28:59;;;;;;;17.58;6.00;;;;;;;3.37;78.37;100010.22;5064342;28;20075;-73
2022/02/26 00:31:24;;;;;;;14.32;5.47;;;;;;;3.46;78.44;100017.94;5052068;28;20107;-72
2022/02/26 00:33:49;;;;;;;21.30;6.18;;;;;;;3.43;78.70;100017.47;5050871;28;20037;-73
2022/02/26 00:36:15;;;;;;;18.70;6.15;;;;;;;3.39;78.25;100024.06;5053311;28;20024;-72
2022/02/26 00:38:40;;;;;;;24.52;6.22;;;;;;;3.42;78.60;100027.19;5050080;28;20401;-73
2022/02/26 00:41:06;;;;;;;21.00;6.88;;;;;;;3.42;78.65;100024.56;5051044;28;20085;-73
2022/02/26 00:43:31;;;;;;;20.85;6.97;;;;;;;3.42;78.99;100029.00;5059103;28;20507;-72
2022/02/26 00:45:57;;;;;;;22.02;6.47;;;;;;;3.35;78.71;100031.53;5048141;28;20037;-72
2022/02/26 00:49:46;;;;;;;16.88;5.60;;;;;;;3.40;78.77;100039.75;5052524;28;20060;-73
2022/02/26 00:51:07;;;;;;;16.67;5.60;;;;;;;3.41;78.94;100040.56;5048246;28;20032;-72
2022/02/26 00:53:33;;;;;;;20.10;6.22;;;;;;;3.40;78.90;100046.84;5051772;28;20028;-72
2022/02/26 00:55:58;;;;;;;15.80;6.40;;;;;;;3.37;78.90;100044.53;5046920;28;20088;-73
2022/02/26 00:58:23;;;;;;;22.92;6.65;;;;;;;3.39;78.79;100055.72;5055119;28;20032;-72
2022/02/26 01:00:48;;;;;;;24.63;6.57;;;;;;;3.36;78.85;100049.00;5023274;28;21847;-72
2022/02/26 01:03:14;;;;;;;21.58;6.20;;;;;;;3.36;78.80;100053.47;5057362;28;20029;-73
2022/02/26 01:05:40;;;;;;;24.27;6.85;;;;;;;3.38;79.31;100054.09;5050322;28;20082;-72
2022/02/26 01:08:06;;;;;;;22.10;6.82;;;;;;;3.31;79.37;100048.69;5049065;28;20163;-73
2022/02/26 01:10:32;;;;;;;17.92;7.13;;;;;;;3.36;78.79;100056.94;5048326;28;20123;-72
2022/02/26 01:12:57;;;;;;;21.17;6.10;;;;;;;3.36;78.96;100053.47;5046899;28;20043;-74
2022/02/26 01:15:23;;;;;;;21.13;7.32;;;;;;;3.38;78.86;100062.84;5047300;28;20032;-74
2022/02/26 01:17:48;;;;;;;23.13;6.13;;;;;;;3.37;78.69;100070.91;5049815;28;20035;-72
2022/02/26 01:20:13;;;;;;;24.20;6.55;;;;;;;3.36;79.21;100074.56;5042213;28;20090;-73
2022/02/26 01:22:38;;;;;;;23.63;6.28;;;;;;;3.34;79.03;100066.81;5048716;28;20120;-72
2022/02/26 01:25:05;;;;;;;20.05;6.63;;;;;;;3.35;78.94;100067.63;5050506;28;20045;-73
2022/02/26 01:27:30;;;;;;;29.73;5.78;;;;;;;3.34;78.87;100071.28;5050828;28;20452;-72
2022/02/26 01:29:56;;;;;;;19.98;5.85;;;;;;;3.33;79.31;100080.19;5048780;28;20127;-73
2022/02/26 01:32:21;;;;;;;24.58;6.93;;;;;;;3.29;79.11;100076.25;5048164;28;20029;-74
2022/02/26 01:34:46;;;;;;;22.40;6.55;;;;;;;3.33;79.03;100077.53;5047337;28;20021;-73
2022/02/26 01:37:12;;;;;;;19.77;6.75;;;;;;;3.32;78.87;100078.56;5043262;28;20489;-73
2022/02/26 01:39:37;;;;;;;24.95;6.53;;;;;;;3.30;78.85;100088.47;5044741;28;20068;-73
2022/02/26 01:42:04;;;;;;;21.65;6.80;;;;;;;3.26;78.86;100093.22;5049410;28;20082;-73
2022/02/26 01:44:29;;;;;;;30.88;6.43;;;;;;;3.22;79.00;100077.91;5048925;28;20016;-74
2022/02/26 01:46:55;;;;;;;28.50;6.78;;;;;;;3.20;79.03;100072.00;5040892;28;20036;-74
2022/02/26 01:49:20;;;;;;;17.02;6.60;;;;;;;3.32;79.04;100091.75;5049029;28;20645;-73
2022/02/26 01:51:47;;;;;;;26.92;7.30;;;;;;;3.32;79.09;100102.28;5050663;28;20060;-74
2022/02/26 01:54:13;;;;;;;22.38;5.85;;;;;;;3.32;79.14;100100.47;5050042;28;20106;-73
2022/02/26 01:56:38;;;;;;;32.28;9.48;;;;;;;3.30;78.88;100097.16;5046456;28;20402;-73
2022/02/26 01:59:04;;;;;;;16.73;6.15;;;;;;;3.34;79.34;100095.03;5049491;28;20098;-73
2022/02/26 02:01:29;;;;;;;19.55;7.03;;;;;;;3.31;78.96;100093.56;5049283;28;20064;-73
2022/02/26 02:03:54;;;;;;;28.00;6.88;;;;;;;3.32;79.30;100103.09;5019839;28;20028;-73
2022/02/26 02:06:21;;;;;;;22.20;6.63;;;;;;;3.34;79.58;100108.22;5045929;28;20029;-74
2022/02/26 02:08:47;;;;;;;22.58;6.50;;;;;;;3.36;79.90;100106.22;5046994;28;20044;-73
2022/02/26 02:11:12;;;;;;;24.60;6.97;;;;;;;3.38;79.26;100105.06;5045855;28;20017;-74
2022/02/26 02:13:38;;;;;;;21.27;6.22;;;;;;;3.39;79.04;100109.34;5048291;28;20040;-73
2022/02/26 02:16:05;;;;;;;21.88;8.20;;;;;;;3.40;79.43;100105.72;5048242;28;20444;-73
2022/02/26 02:18:30;;;;;;;19.05;6.35;;;;;;;3.36;79.05;100103.59;5044959;28;20078;-73
2022/02/26 02:20:57;;;;;;;24.48;5.57;;;;;;;3.37;79.14;100108.69;5048694;28;20036;-74
2022/02/26 02:23:23;;;;;;;23.15;7.20;;;;;;;3.39;79.24;100114.63;5049395;28;20029;-72
2022/02/26 02:25:51;;;;;;;28.10;7.05;;;;;;;3.37;78.93;100113.97;5043798;28;20036;-73
2022/02/26 02:28:17;;;;;;;17.98;6.07;;;;;;;3.37;78.98;100113.13;5044126;28;20553;-72
2022/02/26 02:30:42;;;;;;;18.08;6.65;;;;;;;3.35;78.99;100115.13;5046203;28;20116;-73
2022/02/26 02:33:09;;;;;;;27.08;9.68;;;;;;;3.29;79.21;100102.63;5049376;28;20028;-73
2022/02/26 02:35:41;;;;;;;20.27;7.55;;;;;;;3.35;78.81;100117.78;5045043;28;20551;-73
2022/02/26 02:38:12;;;;;;;18.00;5.72;;;;;;;3.30;78.93;100130.66;5048393;28;20420;-75
2022/02/26 02:40:38;;;;;;;30.40;7.78;;;;;;;3.32;78.76;100136.59;5048053;28;20394;-72
2022/02/26 02:43:05;;;;;;;13.32;5.28;;;;;;;3.32;78.81;100133.97;5048069;28;20043;-74
2022/02/26 02:45:31;;;;;;;14.52;5.78;;;;;;;3.30;78.72;100130.66;5046383;28;20116;-73
2022/02/26 02:47:57;;;;;;;17.95;6.60;;;;;;;3.29;78.76;100134.28;5048369;28;20029;-72
2022/02/26 02:50:22;;;;;;;19.73;5.53;;;;;;;3.29;78.94;100145.66;5049014;28;20031;-73
2022/02/26 02:52:48;;;;;;;25.63;6.95;;;;;;;3.31;79.04;100150.75;5047775;28;20037;-74
2022/02/26 02:55:14;;;;;;;18.98;5.57;;;;;;;3.29;78.85;100150.94;5049083;28;20036;-72
2022/02/26 02:57:43;;;;;;;16.63;5.32;;;;;;;3.26;78.99;100148.63;5042366;28;20056;-73
2022/02/26 03:00:09;;;;;;;20.70;6.05;;;;;;;3.27;78.83;100158.22;5046167;28;20054;-73
2022/02/26 03:02:35;;;;;;;11.98;4.88;;;;;;;3.27;78.59;100152.94;5044618;28;20037;-72
2022/02/26 03:05:00;;;;;;;23.58;5.57;;;;;;;3.29;78.81;100166.78;5047492;28;20434;-74
2022/02/26 03:07:25;;;;;;;19.17;5.63;;;;;;;3.28;78.74;100162.47;5049172;28;20033;-74
2022/02/26 03:09:51;;;;;;;24.63;6.07;;;;;;;3.27;79.14;100168.75;5042066;28;20069;-73
2022/02/26 03:12:17;;;;;;;15.65;5.38;;;;;;;3.27;78.93;100170.56;5044939;28;20027;-74
2022/02/26 03:14:42;;;;;;;20.40;6.18;;;;;;;3.27;78.80;100174.03;5046527;28;20029;-74
2022/02/26 03:17:08;;;;;;;14.90;5.60;;;;;;;3.24;79.02;100174.38;5048047;28;20110;-74
2022/02/26 03:19:34;;;;;;;16.98;4.60;;;;;;;3.28;79.16;100178.31;5043478;28;20087;-74
2022/02/26 03:21:59;;;;;;;24.90;7.28;;;;;;;3.28;78.40;100180.13;5044802;28;20416;-73
2022/02/26 03:24:24;;;;;;;24.73;6.30;;;;;;;3.25;78.95;100181.31;5049670;28;20036;-73
2022/02/26 03:26:56;;;;;;;17.55;5.05;;;;;;;3.28;79.18;100177.47;5045232;28;20394;-73
2022/02/26 03:29:26;;;;;;;16.98;6.07;;;;;;;3.29;79.24;100182.59;5048213;28;20033;-74
2022/02/26 03:31:51;;;;;;;18.17;5.25;;;;;;;3.26;79.27;100182.09;5059060;28;20405;-74
2022/02/26 03:34:16;;;;;;;22.52;5.25;;;;;;;3.32;79.46;100205.19;5050387;28;20021;-74
2022/02/26 03:36:42;;;;;;;24.00;6.97;;;;;;;3.33;79.52;100191.00;5053647;28;20033;-73
2022/02/26 03:39:07;;;;;;;17.23;5.90;;;;;;;3.33;79.53;100191.81;5052147;28;20041;-74
2022/02/26 03:41:33;;;;;;;19.20;4.72;;;;;;;3.33;79.76;100204.19;5051846;28;21745;-74
2022/02/26 03:43:58;;;;;;;12.52;4.68;;;;;;;3.34;79.59;100204.00;5047452;28;20182;-74
2022/02/26 03:46:24;;;;;;;22.15;5.07;;;;;;;3.36;79.43;100217.06;5053101;28;20500;-73
2022/02/26 03:48:50;;;;;;;19.40;4.82;;;;;;;3.37;79.51;100213.41;5049361;28;20036;-73
2022/02/26 03:51:16;;;;;;;27.13;5.40;;;;;;;3.37;79.47;100208.97;5049925;28;20025;-74
2022/02/26 03:53:41;;;;;;;14.68;5.95;;;;;;;3.39;79.55;100219.34;5053038;28;20033;-73
2022/02/26 03:56:07;;;;;;;22.88;5.85;;;;;;;3.33;79.77;100214.75;5053241;28;20448;-73
2022/02/26 03:58:32;;;;;;;27.27;6.45;;;;;;;3.37;79.63;100223.97;5052312;28;20040;-74
2022/02/26 04:00:58;;;;;;;17.65;4.90;;;;;;;3.40;79.52;100228.91;5052880;28;20036;-73
2022/02/26 04:03:23;;;;;;;25.23;5.47;;;;;;;3.41;79.52;100233.19;5051427;28;20037;-74
2022/02/26 04:05:49;;;;;;;21.63;5.10;;;;;;;3.42;79.13;100240.97;5047215;28;20090;-72
2022/02/26 04:08:14;;;;;;;15.68;5.97;;;;;;;3.35;79.69;100228.59;5050088;28;20087;-73
2022/02/26 04:10:39;;;;;;;20.58;5.50;;;;;;;3.41;79.54;100239.28;5035100;28;20021;-73
2022/02/26 04:13:05;;;;;;;16.88;5.43;;;;;;;3.40;79.55;100237.66;5051191;28;20049;-74
2022/02/26 04:15:30;;;;;;;17.30;5.18;;;;;;;3.39;79.82;100235.16;5053847;28;20859;-74
2022/02/26 04:17:55;;;;;;;26.95;5.50;;;;;;;3.43;79.76;100252.34;5054095;28;20048;-73
2022/02/26 04:20:21;;;;;;;20.83;5.32;;;;;;;3.44;79.80;100235.50;5051582;28;20124;-74
2022/02/26 04:22:46;;;;;;;27.08;6.38;;;;;;;3.42;79.42;100238.31;5052789;28;22020;-74
2022/02/26 04:25:11;;;;;;;16.48;5.03;;;;;;;3.42;79.35;100237.47;5053411;28;20041;-74
2022/02/26 04:27:38;;;;;;;15.80;4.90;;;;;;;3.42;79.55;100234.84;5052367;28;20071;-73
2022/02/26 04:30:08;;;;;;;13.43;4.78;;;;;;;3.43;79.42;100239.16;5052263;28;20029;-73
2022/02/26 04:32:34;;;;;;;22.15;5.68;;;;;;;3.40;79.22;100239.47;5046340;28;20033;-73
2022/02/26 04:34:59;;;;;;;19.85;4.47;;;;;;;3.41;78.93;100238.47;5052689;28;20029;-73
2022/02/26 04:37:27;;;;;;;15.80;4.63;;;;;;;3.39;78.81;100240.44;5050879;28;20049;-74
2022/02/26 04:39:53;;;;;;;16.85;5.13;;;;;;;3.34;79.22;100234.88;5052852;28;20036;-71
2022/02/26 04:42:18;;;;;;;16.90;5.13;;;;;;;3.37;79.08;100245.91;5050634;28;20037;-73
2022/02/26 04:44:47;;;;;;;23.80;5.38;;;;;;;3.35;78.81;100241.78;5051240;28;20107;-73
2022/02/26 04:47:13;;;;;;;24.73;5.47;;;;;;;3.28;78.58;100235.53;5048161;28;20481;-73
2022/02/26 04:49:39;;;;;;;16.85;5.03;;;;;;;3.33;78.64;100249.03;5051651;28;20041;-73
2022/02/26 04:52:06;;;;;;;24.45;5.35;;;;;;;3.32;78.77;100258.75;5052302;28;20028;-73
2022/02/26 04:54:32;;;;;;;14.15;4.68;;;;;;;3.29;78.82;100259.13;5051768;28;20029;-73
2022/02/26 04:56:58;;;;;;;21.27;5.72;;;;;;;3.29;78.63;100261.75;5052366;28;20123;-71
2022/02/26 04:59:23;;;;;;;14.05;5.22;;;;;;;3.29;78.61;100276.75;5063187;28;20493;-72
2022/02/26 05:01:48;;;;;;;17.95;4.60;;;;;;;3.25;78.61;100262.25;5051559;28;20079;-72
2022/02/26 05:04:14;;;;;;;12.70;5.63;;;;;;;3.25;78.80;100270.16;5051780;28;20043;-71
2022/02/26 05:06:39;;;;;;;15.50;5.85;;;;;;;3.20;79.00;100272.47;5049075;28;20040;-72
2022/02/26 05:09:04;;;;;;;12.00;4.63;;;;;;;3.23;78.60;100283.53;5050949;28;20032;-71
2022/02/26 05:11:29;;;;;;;14.15;5.07;;;;;;;3.24;78.49;100295.72;5048896;28;20025;-72
2022/02/26 05:13:57;;;;;;;16.23;5.78;;;;;;;3.25;78.51;100286.00;5051325;28;20052;-71
2022/02/26 05:16:23;;;;;;;19.00;4.82;;;;;;;3.19;78.41;100284.03;5049243;28;20029;-71
2022/02/26 05:18:48;;;;;;;15.88;5.22;;;;;;;3.21;78.56;100288.13;5049074;28;20036;-72
2022/02/26 05:21:14;;;;;;;17.42;6.40;;;;;;;3.12;78.74;100283.88;5050610;28;20036;-72
2022/02/26 05:23:42;;;;;;;16.10;5.00;;;;;;;3.19;78.75;100286.66;5049948;28;20041;-71
2022/02/26 05:26:11;;;;;;;10.60;4.65;;;;;;;3.15;78.40;100295.88;5042900;28;20449;-71
2022/02/26 05:28:37;;;;;;;18.08;4.18;;;;;;;3.14;78.42;100295.09;5047700;28;20509;-70
2022/02/26 05:31:03;;;;;;;12.82;4.90;;;;;;;3.11;78.82;100295.41;5049271;28;20027;-72
2022/02/26 05:33:28;;;;;;;19.33;5.18;;;;;;;3.13;78.65;100297.84;5049596;28;20234;-72
2022/02/26 05:35:53;;;;;;;13.48;4.63;;;;;;;3.10;78.28;100301.69;5048770;28;20555;-72
2022/02/26 05:38:19;;;;;;;13.32;4.53;;;;;;;3.14;78.53;100318.00;5051033;28;20390;-72
2022/02/26 05:40:44;;;;;;;13.02;4.53;;;;;;;3.11;78.60;100318.31;5045613;28;20063;-72
2022/02/26 05:43:09;;;;;;;20.13;5.10;;;;;;;3.10;78.46;100317.50;5047375;28;20029;-71
2022/02/26 05:45:35;;;;;;;14.73;5.28;;;;;;;3.11;78.37;100332.31;5049842;28;20041;-72
2022/02/26 05:48:00;;;;;;;18.83;4.75;;;;;;;3.07;77.76;100327.53;5047248;28;20033;-72
2022/02/26 05:50:25;;;;;;;18.73;5.43;;;;;;;3.08;78.61;100334.47;5046978;28;20040;-70
2022/02/26 05:52:51;;;;;;;15.48;4.88;;;;;;;3.08;78.52;100343.19;5041583;28;20033;-72
2022/02/26 05:55:16;;;;;;;16.08;4.68;;;;;;;3.08;78.50;100345.03;5043684;28;20033;-72
2022/02/26 05:57:41;;;;;;;13.48;4.90;;;;;;;3.07;78.20;100351.28;5031076;28;20156;-72
2022/02/26 06:00:08;;;;;;;14.20;4.75;;;;;;;3.06;78.37;100365.47;5040905;28;20086;-71
2022/02/26 06:02:33;;;;;;;18.95;4.65;;;;;;;3.00;78.27;100362.47;5031485;28;20123;-71
2022/02/26 06:04:59;;;;;;;14.18;4.85;;;;;;;3.07;78.38;100375.00;5042650;28;20132;-71
2022/02/26 06:07:24;;;;;;;17.70;4.57;;;;;;;3.03;78.09;100372.72;5046424;28;20025;-72
2022/02/26 06:09:49;;;;;;;17.25;4.28;;;;;;;2.96;78.45;100365.59;5049647;28;20493;-73
2022/02/26 06:12:14;;;;;;;13.40;4.18;;;;;;;3.08;78.70;100389.88;5049184;28;20037;-73
2022/02/26 06:14:40;;;;;;;15.23;4.60;;;;;;;3.07;78.58;100393.47;5052276;28;20508;-74
2022/02/26 06:17:05;;;;;;;19.58;6.05;;;;;;;3.08;78.56;100400.41;5047965;28;20086;-74
2022/02/26 06:19:31;;;;;;;16.52;4.78;;;;;;;3.04;78.37;100399.91;5042239;28;20029;-74
2022/02/26 06:21:56;;;;;;;17.42;4.72;;;;;;;3.08;78.83;100400.41;5047768;28;20413;-73
2022/02/26 06:24:21;;;;;;;15.20;5.10;;;;;;;3.00;79.09;100388.84;5048136;28;20060;-73
2022/02/26 06:26:47;;;;;;;20.42;5.22;;;;;;;3.11;78.93;100402.72;5049126;28;20029;-73
2022/02/26 06:29:12;;;;;;;13.60;4.65;;;;;;;3.13;79.04;100406.00;5050051;28;20041;-74
2022/02/26 06:31:37;;;;;;;11.85;5.15;;;;;;;3.06;79.24;100397.13;5048811;28;20101;-72
2022/02/26 06:34:02;;;;;;;17.20;4.30;;;;;;;3.14;79.02;100405.88;5049134;28;20032;-75
2022/02/26 06:36:28;;;;;;;14.02;4.38;;;;;;;3.14;78.93;100426.13;5044953;28;20262;-73
2022/02/26 06:38:53;;;;;;;18.65;5.57;;;;;;;3.16;79.33;100417.06;5048561;28;20039;-73
2022/02/26 06:41:18;;;;;;;19.40;4.97;;;;;;;3.16;79.17;100416.25;5051884;28;20032;-72
2022/02/26 06:43:44;;;;;;;13.90;4.38;;;;;;;3.17;79.46;100425.81;5050197;28;20044;-73
2022/02/26 06:46:11;;;;;;;21.88;4.97;;;;;;;3.21;79.46;100424.50;5045175;28;20025;-70
2022/02/26 06:48:36;;;;;;;12.07;4.13;;;;;;;3.18;79.28;100419.53;5045466;28;20029;-72
2022/02/26 06:51:02;;;;;;;17.65;4.57;;;;;;;3.23;79.32;100435.72;5051507;28;20029;-73
2022/02/26 06:53:27;;;;;;;12.38;3.67;;;;;;;3.22;79.47;100426.13;5049841;28;20045;-74
2022/02/26 06:55:52;;;;;;;22.35;4.78;;;;;;;3.24;79.49;100429.44;5049615;28;20512;-74
2022/02/26 06:58:18;;;;;;;15.75;4.55;;;;;;;3.24;79.57;100424.16;5037906;28;20029;-73
2022/02/26 07:00:43;;;;;;;14.63;5.18;;;;;;;3.27;80.07;100427.31;5044297;28;20033;-75
2022/02/26 07:03:08;;;;;;;18.02;4.93;;;;;;;3.25;79.96;100433.75;5048474;28;20029;-73
2022/02/26 07:05:34;;;;;;;11.27;4.47;;;;;;;3.30;79.77;100442.00;5048219;28;20025;-72
2022/02/26 07:07:59;;;;;;;10.27;4.72;;;;;;;3.29;79.98;100441.19;5053542;28;20040;-72
2022/02/26 07:10:24;;;;;;;18.10;5.32;;;;;;;3.36;79.83;100442.19;5052753;28;20033;-71
2022/02/26 07:12:50;;;;;;;15.52;4.60;;;;;;;3.36;79.97;100442.19;5052381;28;20802;-72
2022/02/26 07:15:15;;;;;;;14.98;5.60;;;;;;;3.38;79.90;100447.28;5054354;28;20537;-73
2022/02/26 07:17:40;;;;;;;15.30;5.38;;;;;;;3.37;80.15;100448.25;5057131;28;20035;-71
2022/02/26 07:20:06;;;;;;;16.25;4.88;;;;;;;3.39;80.20;100449.75;5052386;28;20504;-71
2022/02/26 07:22:32;;;;;;;20.02;5.85;;;;;;;3.39;79.98;100457.66;5064827;28;20029;-71
2022/02/26 07:24:57;;;;;;;16.35;4.80;;;;;;;3.39;80.16;100457.66;5068748;28;20132;-70
2022/02/26 07:27:22;;;;;;;13.40;4.82;;;;;;;3.38;80.46;100453.41;5068954;28;20021;-72
2022/02/26 07:29:48;;;;;;;17.38;4.95;;;;;;;3.45;80.20;100474.69;5062314;28;20048;-72
2022/02/26 07:32:13;;;;;;;18.75;4.60;;;;;;;3.47;79.99;100468.22;5066017;28;20029;-72
2022/02/26 07:34:39;;;;;;;22.45;5.10;;;;;;;3.47;79.90;100472.69;5074998;28;20429;-73
2022/02/26 07:37:04;;;;;;;19.63;4.00;;;;;;;3.53;80.12;100487.88;5055168;28;20029;-73
2022/02/26 07:39:29;;;;;;;17.63;4.90;;;;;;;3.56;80.46;100498.13;5069355;28;20482;-73
2022/02/26 07:41:55;;;;;;;20.60;4.95;;;;;;;3.58;80.47;100496.16;5063732;28;20029;-72
2022/02/26 07:44:21;;;;;;;13.65;4.82;;;;;;;3.56;80.58;100484.94;5053979;28;20020;-72
2022/02/26 07:46:46;;;;;;;25.52;4.93;;;;;;;3.60;80.24;100492.31;5062488;28;20024;-74
2022/02/26 07:49:11;;;;;;;16.55;5.40;;;;;;;3.64;80.51;100506.88;5066093;28;20092;-71
2022/02/26 07:51:38;;;;;;;16.15;4.32;;;;;;;3.57;80.32;100494.47;5058081;28;20025;-72
2022/02/26 07:54:03;;;;;;;14.00;4.20;;;;;;;3.68;80.35;100510.00;5060016;28;20043;-72
2022/02/26 07:56:28;;;;;;;21.65;4.78;;;;;;;3.74;80.17;100514.63;5059393;28;20486;-72
2022/02/26 07:58:54;;;;;;;13.23;3.88;;;;;;;3.75;80.47;100513.66;5061630;28;20120;-71
2022/02/26 08:01:20;;;;;;;15.85;4.05;;;;;;;3.76;80.33;100516.13;5056529;28;20029;-72
2022/02/26 08:03:45;;;;;;;15.82;4.30;;;;;;;3.76;80.72;100512.66;5062671;28;20492;-77
2022/02/26 08:06:10;;;;;;;17.40;4.53;;;;;;;3.83;80.65;100521.56;5058781;28;20055;-72
2022/02/26 08:08:36;;;;;;;16.02;4.65;;;;;;;3.76;80.49;100507.38;5058388;28;20021;-75
2022/02/26 08:11:01;;;;;;;17.80;4.53;;;;;;;3.89;80.47;100522.75;5051763;28;20711;-71
2022/02/26 08:13:27;;;;;;;16.60;4.68;;;;;;;3.89;80.41;100520.09;5051551;28;20029;-71
2022/02/26 08:15:52;;;;;;;10.27;4.25;;;;;;;3.90;80.18;100529.66;5050408;28;20396;-72
2022/02/26 08:18:17;;;;;;;14.98;4.57;;;;;;;3.93;80.24;100535.47;5048489;28;20043;-72
2022/02/26 08:20:43;;;;;;;27.08;4.88;;;;;;;3.89;80.08;100523.53;5052643;28;20048;-71
2022/02/26 08:23:08;;;;;;;18.58;4.63;;;;;;;3.95;79.98;100532.66;5061953;28;20036;-72
2022/02/26 08:25:34;;;;;;;20.73;4.35;;;;;;;3.99;80.18;100534.78;5054154;28;20493;-72
2022/02/26 08:28:00;;;;;;;26.45;6.60;;;;;;;3.94;79.17;100526.53;5050837;28;20031;-71
2022/02/26 08:30:25;;;;;;;24.15;5.32;;;;;;;3.99;78.46;100537.44;5052959;28;20033;-71
2022/02/26 08:32:52;;;;;;;28.40;6.47;;;;;;;3.99;78.92;100539.25;5050141;28;20025;-71
2022/02/26 08:35:18;;;;;;;26.92;5.63;;;;;;;4.04;78.88;100550.94;5043743;28;20033;-72
2022/02/26 08:37:46;;;;;;;17.88;4.97;;;;;;;4.04;79.29;100550.16;5050924;28;20075;-71
2022/02/26 08:40:12;;;;;;;22.63;5.78;;;;;;;4.08;79.73;100551.47;5060452;28;20035;-71
2022/02/26 08:42:37;;;;;;;13.95;4.80;;;;;;;4.10;79.39;100557.41;5044013;28;20426;-71
2022/02/26 08:45:05;;;;;;;21.45;6.85;;;;;;;4.07;79.86;100548.00;5044929;28;20037;-71
2022/02/26 08:47:31;;;;;;;21.05;5.35;;;;;;;4.14;79.71;100556.91;5045853;28;20029;-71
2022/02/26 08:49:59;;;;;;;16.60;4.82;;;;;;;4.17;79.45;100556.56;5047173;28;20060;-72
2022/02/26 08:52:25;;;;;;;17.77;4.95;;;;;;;4.22;79.68;100561.38;5048883;28;20056;-72
2022/02/26 08:54:50;;;;;;;21.52;4.85;;;;;;;4.21;79.56;100555.28;5046018;28;20100;-72
2022/02/26 08:57:16;;;;;;;15.15;4.78;;;;;;;4.24;79.43;100560.22;5043792;28;20025;-72
2022/02/26 08:59:41;;;;;;;17.85;5.35;;;;;;;4.33;79.42;100567.16;5047461;28;20516;-72
2022/02/26 09:02:08;;;;;;;26.95;5.53;;;;;;;4.35;79.56;100562.53;5047494;28;20734;-72
2022/02/26 09:04:33;;;;;;;28.13;6.53;;;;;;;4.39;77.79;100563.84;5048518;28;20025;-72
2022/02/26 09:06:59;;;;;;;19.30;5.63;;;;;;;4.39;77.75;100579.69;5046033;28;20059;-71
2022/02/26 09:09:24;;;;;;;28.05;5.78;;;;;;;4.40;77.33;100573.44;5046847;28;20115;-71
2022/02/26 09:11:49;;;;;;;19.90;5.75;;;;;;;4.45;77.86;100578.22;5051841;28;20111;-71
2022/02/26 09:14:15;;;;;;;21.02;6.20;;;;;;;4.49;77.65;100580.38;5055438;28;20079;-71
2022/02/26 09:16:40;;;;;;;24.88;7.82;;;;;;;4.50;78.10;100574.06;5049379;28;20153;-71
2022/02/26 09:19:05;;;;;;;43.08;16.67;;;;;;;4.44;77.63;100561.53;5048071;28;20143;-71
2022/02/26 09:21:31;;;;;;;64.32;19.65;;;;;;;4.53;77.03;100571.09;5054556;28;20246;-71
2022/02/26 09:23:56;;;;;;;50.53;17.77;;;;;;;4.57;77.59;100569.78;5053246;28;20510;-71
2022/02/26 09:26:21;;;;;;;56.22;17.98;;;;;;;4.63;77.54;100578.03;5043695;28;20032;-71
2022/02/26 09:28:47;;;;;;;41.17;15.40;;;;;;;4.66;77.27;100589.09;5046553;28;20120;-71
2022/02/26 09:31:13;;;;;;;41.78;14.70;;;;;;;4.69;77.50;100583.47;5041408;28;20027;-71
2022/02/26 09:33:40;;;;;;;32.58;12.95;;;;;;;4.72;77.13;100579.69;5044208;28;20030;-71
2022/02/26 09:36:06;;;;;;;28.42;11.65;;;;;;;4.76;77.62;100591.56;5050638;28;20021;-71
2022/02/26 09:38:33;;;;;;;36.45;11.32;;;;;;;4.75;77.45;100582.78;5045877;28;20043;-71
2022/02/26 09:41:00;;;;;;;25.98;9.43;;;;;;;4.72;77.11;100577.03;5046621;28;20087;-71
2022/02/26 09:43:27;;;;;;;27.85;8.70;;;;;;;4.84;76.95;100583.59;5043839;28;20056;-70
2022/02/26 09:45:54;;;;;;;31.60;7.97;;;;;;;4.88;76.96;100598.97;5040749;28;20135;-71
2022/02/26 09:48:19;;;;;;;28.77;6.93;;;;;;;4.88;76.72;100591.03;5048073;28;20108;-72
2022/02/26 09:50:45;;;;;;;22.13;6.72;;;;;;;4.92;76.58;100599.44;5048423;28;20581;-69
2022/02/26 09:53:12;;;;;;;18.98;5.97;;;;;;;4.94;76.77;100602.75;5043126;28;20103;-70
2022/02/26 09:55:38;;;;;;;18.63;6.72;;;;;;;4.94;76.82;100600.94;5062035;28;20024;-70
2022/02/26 09:58:04;;;;;;;26.88;6.07;;;;;;;4.96;76.87;100598.09;5047523;28;20037;-70
2022/02/26 10:00:30;;;;;;;22.33;5.57;;;;;;;4.98;76.81;100604.09;5053052;28;20043;-70
2022/02/26 10:02:56;;;;;;;15.25;4.85;;;;;;;5.00;76.38;100607.38;5048273;28;20819;-70
2022/02/26 10:05:21;;;;;;;21.65;7.47;;;;;;;5.00;76.17;100604.75;5045705;28;20078;-70
2022/02/26 10:07:49;;;;;;;22.90;5.93;;;;;;;5.03;76.02;100609.66;5048398;28;20552;-70
2022/02/26 10:10:16;;;;;;;22.55;5.10;;;;;;;5.05;76.17;100611.16;5047913;28;20086;-70
2022/02/26 10:12:42;;;;;;;19.55;5.13;;;;;;;5.07;76.45;100611.81;5047782;28;20024;-70
2022/02/26 10:15:25;;;;;;;13.20;4.68;;;;;;;5.12;76.66;100617.44;5044266;28;20036;-70
2022/02/26 10:18:00;;;;;;;16.95;4.72;;;;;;;5.15;76.65;100621.56;5038327;28;20490;-70
2022/02/26 10:20:25;;;;;;;13.57;4.22;;;;;;;5.18;77.11;100622.03;5047759;28;20032;-70
2022/02/26 10:22:52;;;;;;;23.38;6.45;;;;;;;5.23;76.19;100624.19;5046168;28;20029;-70
2022/02/26 10:25:23;;;;;;;21.23;4.95;;;;;;;5.26;76.46;100629.94;5050929;28;20381;-70
2022/02/26 10:27:54;;;;;;;17.27;5.05;;;;;;;5.30;76.14;100617.22;5045079;28;20110;-71
2022/02/26 10:30:26;;;;;;;19.35;4.70;;;;;;;5.35;76.16;100627.28;5050401;28;20082;-69
2022/02/26 10:33:12;;;;;;;15.90;5.10;;;;;;;5.38;76.15;100622.47;5046579;28;20028;-70
2022/02/26 10:35:49;;;;;;;14.32;4.78;;;;;;;5.43;75.31;100621.94;5043201;28;20029;-70
2022/02/26 10:38:29;;;;;;;15.73;4.18;;;;;;;5.45;75.50;100614.66;5048711;28;20033;-70
2022/02/26 10:41:13;;;;;;;17.58;4.55;;;;;;;5.49;75.28;100618.59;5043966;28;20033;-71
2022/02/26 10:43:55;;;;;;;18.20;4.80;;;;;;;5.52;75.26;100610.34;5048387;28;20112;-71
2022/02/26 10:46:20;;;;;;;18.33;4.30;;;;;;;5.57;75.38;100622.03;5050636;28;20090;-70
2022/02/26 10:48:47;;;;;;;14.77;4.07;;;;;;;5.59;74.81;100619.25;5044072;28;20079;-71
2022/02/26 10:51:17;;;;;;;13.32;4.97;;;;;;;5.59;75.88;100617.41;5048211;28;20123;-69
2022/02/26 10:53:44;;;;;;;19.55;5.15;;;;;;;5.65;75.26;100626.50;5044348;28;20130;-70
2022/02/26 10:56:10;;;;;;;17.30;4.63;;;;;;;5.68;75.34;100621.66;5046353;28;20036;-70
2022/02/26 10:58:36;;;;;;;16.08;4.28;;;;;;;5.70;75.75;100624.97;5046881;28;20124;-70
2022/02/26 11:01:07;;;;;;;19.65;4.35;;;;;;;5.75;75.50;100627.09;5053293;28;20115;-74
2022/02/26 11:03:35;;;;;;;17.63;4.22;;;;;;;5.77;75.64;100617.13;5046919;28;20045;-75
2022/02/26 11:06:01;;;;;;;19.70;4.07;;;;;;;5.76;75.60;100613.69;5051228;28;20481;-73
2022/02/26 11:08:27;;;;;;;14.30;3.70;;;;;;;5.84;75.44;100615.47;5042335;28;20033;-75
2022/02/26 11:10:53;;;;;;;17.80;4.35;;;;;;;5.88;76.08;100619.44;5046945;28;20036;-74
2022/02/26 11:13:21;;;;;;;16.83;4.00;;;;;;;5.94;75.52;100616.09;5048966;28;20128;-74
2022/02/26 11:15:48;;;;;;;25.15;4.80;;;;;;;5.94;75.83;100608.16;5062739;28;20478;-74
2022/02/26 11:18:17;;;;;;;18.80;4.15;;;;;;;5.99;76.61;100605.78;5056209;28;20481;-74
2022/02/26 11:20:42;;;;;;;13.93;4.95;;;;;;;6.02;75.27;100608.09;5048230;28;20033;-76